Time,TemperatureF,DewpointF,PressureIn,WindDirection,WindDirectionDegrees,WindSpeedMPH,WindSpeedGustMPH,Humidity,HourlyPrecipIn,Conditions,Clouds,dailyrainin,SoftwareType,DateUTC
2013-11-01 00:24:00,67.0,63.0,29.54,SSW,209,9.0,-999.0,86,-99.99,,,-99.99,,2013-11-01 04:24:00,
2013-11-01 00:54:00,69.0,63.0,29.54,SW,216,10.0,-999.0,82,-99.99,,,-99.99,,2013-11-01 04:54:00,
2013-11-01 01:23:00,70.0,63.0,29.55,WSW,254,11.0,-999.0,79,-99.99,,,-99.99,,2013-11-01 05:23:00,
2013-11-01 01:53:00,63.0,59.0,29.59,WNW,290,16.0,-999.0,88,-99.99,,,-99.99,,2013-11-01 05:53:00,
2013-11-01 02:22:00,62.0,58.0,29.59,West,263,11.0,-999.0,88,-99.99,,,-99.99,,2013-11-01 06:22:00,
2013-11-01 02:52:00,61.0,57.0,29.63,West,279,10.0,-999.0,88,-99.99,,,-99.99,,2013-11-01 06:52:00,
2013-11-01 03:22:00,60.0,56.0,29.62,WNW,286,9.0,-999.0,88,-99.99,,,-99.99,,2013-11-01 07:22:00,
2013-11-01 03:32:00,60.0,56.0,29.62,WNW,286,9.0,-999.0,88,-99.99,,,-99.99,,2013-11-01 07:32:00,
2013-11-01 03:52:00,60.0,56.0,29.62,West,260,8.0,-999.0,88,-99.99,,,-99.99,,2013-11-01 07:52:00,
2013-11-01 04:22:00,60.0,56.0,29.65,West,281,5.0,-999.0,86,-99.99,,,-99.99,,2013-11-01 08:22:00,
2013-11-01 04:52:00,59.0,54.0,29.66,West,263,9.0,-999.0,85,-99.99,,,-99.99,,2013-11-01 08:52:00,
2013-11-01 05:21:00,59.0,54.0,29.68,West,276,7.0,-999.0,85,-99.99,,,-99.99,,2013-11-01 09:21:00,
2013-11-01 05:53:00,59.0,54.0,29.70,WNW,285,7.0,-999.0,84,-99.99,,,-99.99,,2013-11-01 09:53:00,
2013-11-01 06:23:00,59.0,53.0,29.71,West,277,7.0,-999.0,81,-99.99,,,-99.99,,2013-11-01 10:23:00,
2013-11-01 06:52:00,58.0,53.0,29.72,West,269,7.0,-999.0,83,-99.99,,,-99.99,,2013-11-01 10:52:00,
2013-11-01 07:22:00,57.0,52.0,29.73,West,261,5.0,-999.0,84,-99.99,,,-99.99,,2013-11-01 11:22:00,
2013-11-01 07:52:00,56.0,52.0,29.75,West,276,5.0,-999.0,85,-99.99,,,-99.99,,2013-11-01 11:52:00,
2013-11-01 08:22:00,55.0,51.0,29.76,WNW,282,3.0,-999.0,87,-99.99,,,-99.99,,2013-11-01 12:22:00,
2013-11-01 08:42:00,55.0,51.0,29.77,WNW,290,1.0,-999.0,87,-99.99,,,-99.99,,2013-11-01 12:42:00,
2013-11-01 08:52:00,55.0,52.0,29.78,West,280,2.0,-999.0,88,-99.99,,,-99.99,,2013-11-01 12:52:00,
2013-11-01 09:12:00,55.0,52.0,29.79,West,280,3.0,-999.0,88,-99.99,,,-99.99,,2013-11-01 13:12:00,
2013-11-01 09:22:00,55.0,51.0,29.79,WNW,298,4.0,-999.0,87,-99.99,,,-99.99,,2013-11-01 13:22:00,
2013-11-01 09:52:00,55.0,51.0,29.80,WSW,254,3.0,-999.0,87,-99.99,,,-99.99,,2013-11-01 13:52:00,
2013-11-01 10:22:00,56.0,52.0,29.80,SW,235,4.0,-999.0,85,-99.99,,,-99.99,,2013-11-01 14:22:00,
2013-11-01 10:52:00,57.0,52.0,29.80,WSW,249,6.0,-999.0,82,-99.99,,,-99.99,,2013-11-01 14:52:00,
2013-11-01 11:22:00,59.0,52.0,29.79,WSW,248,6.0,-999.0,79,-99.99,,,-99.99,,2013-11-01 15:22:00,
2013-11-01 11:44:00,60.0,52.0,29.79,West,275,7.0,-999.0,75,-99.99,,,-99.99,,2013-11-01 15:44:00,
2013-11-01 11:54:00,61.0,51.0,29.80,WSW,258,7.0,-999.0,69,-99.99,,,-99.99,,2013-11-01 15:54:00,
2013-11-01 12:23:00,62.0,50.0,29.79,WNW,296,8.0,-999.0,65,-99.99,,,-99.99,,2013-11-01 16:23:00,
2013-11-01 12:43:00,62.0,48.0,29.79,WNW,286,9.0,-999.0,61,-99.99,,,-99.99,,2013-11-01 16:43:00,
2013-11-01 12:53:00,63.0,50.0,29.79,West,277,8.0,-999.0,63,-99.99,,,-99.99,,2013-11-01 16:53:00,
2013-11-01 13:12:00,63.0,48.0,29.79,West,265,9.0,-999.0,59,-99.99,,,-99.99,,2013-11-01 17:12:00,
2013-11-01 13:22:00,64.0,48.0,29.78,WNW,283,7.0,-999.0,56,-99.99,,,-99.99,,2013-11-01 17:22:00,
2013-11-01 13:52:00,64.0,48.0,29.77,WNW,291,9.0,-999.0,56,-99.99,,,-99.99,,2013-11-01 17:52:00,
2013-11-01 14:22:00,65.0,47.0,29.75,NW,323,10.0,-999.0,52,-99.99,,,-99.99,,2013-11-01 18:22:00,
2013-11-01 14:52:00,65.0,46.0,29.73,WNW,286,9.0,-999.0,51,-99.99,,,-99.99,,2013-11-01 18:52:00,
2013-11-01 15:22:00,66.0,46.0,29.73,WSW,238,8.0,-999.0,49,-99.99,,,-99.99,,2013-11-01 19:22:00,
2013-11-01 15:52:00,66.0,47.0,29.73,WNW,302,8.0,-999.0,50,-99.99,,,-99.99,,2013-11-01 19:52:00,
2013-11-01 16:12:00,66.0,46.0,29.72,NW,311,8.0,-999.0,48,-99.99,,,-99.99,,2013-11-01 20:12:00,
2013-11-01 16:22:00,66.0,45.0,29.72,WNW,288,8.0,-999.0,47,-99.99,,,-99.99,,2013-11-01 20:22:00,
2013-11-01 16:42:00,65.0,46.0,29.73,West,266,7.0,-999.0,51,-99.99,,,-99.99,,2013-11-01 20:42:00,
2013-11-01 16:52:00,66.0,46.0,29.73,WNW,290,6.0,-999.0,48,-99.99,,,-99.99,,2013-11-01 20:52:00,
2013-11-01 17:22:00,66.0,46.0,29.72,WNW,298,7.0,-999.0,48,-99.99,,,-99.99,,2013-11-01 21:22:00,
2013-11-01 17:43:00,66.0,46.0,29.72,WSW,257,5.0,-999.0,49,-99.99,,,-99.99,,2013-11-01 21:43:00,
2013-11-01 17:55:00,66.0,46.0,29.73,WSW,255,7.0,-999.0,48,-99.99,,,-99.99,,2013-11-01 21:55:00,
2013-11-01 18:24:00,65.0,45.0,29.73,West,264,6.0,-999.0,49,-99.99,,,-99.99,,2013-11-01 22:24:00,
2013-11-01 18:42:00,64.0,45.0,29.73,West,272,4.0,-999.0,50,-99.99,,,-99.99,,2013-11-01 22:42:00,
2013-11-01 18:53:00,63.0,45.0,29.73,West,272,3.0,-999.0,51,-99.99,,,-99.99,,2013-11-01 22:53:00,
2013-11-01 19:22:00,61.0,45.0,29.74,West,278,0.0,-999.0,56,-99.99,,,-99.99,,2013-11-01 23:22:00,
2013-11-01 19:53:00,58.0,47.0,29.75,West,278,0.0,-999.0,66,-99.99,,,-99.99,,2013-11-01 23:53:00,
2013-11-01 20:22:00,57.0,47.0,29.76,West,278,0.0,-999.0,70,-99.99,,,-99.99,,2013-11-02 00:22:00,
2013-11-01 20:42:00,56.0,46.0,29.76,West,278,0.0,-999.0,69,-99.99,,,-99.99,,2013-11-02 00:42:00,
2013-11-01 20:52:00,58.0,47.0,29.76,West,278,0.0,-999.0,66,-99.99,,,-99.99,,2013-11-02 00:52:00,
2013-11-01 21:22:00,59.0,46.0,29.77,SW,220,0.0,-999.0,61,-99.99,,,-99.99,,2013-11-02 01:22:00,
2013-11-01 21:42:00,59.0,45.0,29.76,SW,220,0.0,-999.0,60,-99.99,,,-99.99,,2013-11-02 01:42:00,
2013-11-01 21:52:00,59.0,46.0,29.76,SW,220,0.0,-999.0,62,-99.99,,,-99.99,,2013-11-02 01:52:00,
2013-11-01 22:22:00,59.0,45.0,29.76,SW,220,0.0,-999.0,60,-99.99,,,-99.99,,2013-11-02 02:22:00,
2013-11-01 22:42:00,59.0,45.0,29.76,SW,220,0.0,-999.0,60,-99.99,,,-99.99,,2013-11-02 02:42:00,
2013-11-01 22:52:00,59.0,46.0,29.77,SW,220,0.0,-999.0,62,-99.99,,,-99.99,,2013-11-02 02:52:00,
2013-11-01 23:22:00,60.0,45.0,29.79,West,274,6.0,-999.0,58,-99.99,,,-99.99,,2013-11-02 03:22:00,
2013-11-01 23:44:00,59.0,45.0,29.80,West,280,5.0,-999.0,60,-99.99,,,-99.99,,2013-11-02 03:44:00,
2013-11-01 23:53:00,59.0,46.0,29.80,WNW,283,4.0,-999.0,61,-99.99,,,-99.99,,2013-11-02 03:53:00,